Time;durP1;ratioP1;P1;durP2;ratioP2;P2;SDS_P1;SDS_P2;PMS_P1;PMS_P2;Temp;Humidity;BMP_temperature;BMP_pressure;BME280_temperature;BME280_humidity;BME280_pressure;Samples;Min_cycle;Max_cycle;Signal;HPM_P1;HPM_P2
2022/01/28 00:00:49;;;;;;;12.00;1.57;;;;;;;;;;5037370;28;20192;-68
2022/01/28 00:03:17;;;;;;;11.40;1.53;;;;;;;;;;5036354;28;20304;-69
2022/01/28 00:05:42;;;;;;;15.23;1.70;;;;;;;;;;5045938;28;20272;-68
2022/01/28 00:08:09;;;;;;;10.63;1.67;;;;;;;;;;5045935;28;21125;-68
2022/01/28 00:10:38;;;;;;;13.33;1.60;;;;;;;;;;5041099;28;20231;-69
2022/01/28 00:13:24;;;;;;;19.27;2.13;;;;;;;;;;5042688;28;20276;-69
2022/01/28 00:16:10;;;;;;;9.90;1.60;;;;;;;;;;5046624;28;20638;-69
2022/01/28 00:19:07;;;;;;;4.83;1.33;;;;;;;;;;5042043;28;20205;-71
2022/01/28 00:40:26;;;;;;;12.80;1.70;;;;;;;;;;5045357;28;20208;-76
2022/01/28 00:42:51;;;;;;;14.53;1.57;;;;;;;;;;5030473;28;20259;-74
2022/01/28 00:45:16;;;;;;;15.10;1.60;;;;;;;;;;5047785;28;20189;-73
2022/01/28 00:47:43;;;;;;;10.07;1.50;;;;;;;;;;5040237;28;20228;-73
2022/01/28 00:50:09;;;;;;;11.70;1.60;;;;;;;;;;5045417;28;20874;-73
2022/01/28 00:52:35;;;;;;;13.17;1.57;;;;;;;;;;5043947;28;20272;-72
2022/01/28 00:55:01;;;;;;;15.87;2.70;;;;;;;;;;5042290;28;20602;-72
2022/01/28 00:57:26;;;;;;;19.53;2.30;;;;;;;;;;5047498;28;20193;-72
2022/01/28 00:59:51;;;;;;;13.40;1.87;;;;;;;;;;5042517;28;20644;-71
2022/01/28 01:02:17;;;;;;;12.00;1.60;;;;;;;;;;5041515;28;20591;-72
2022/01/28 01:04:42;;;;;;;27.97;2.27;;;;;;;;;;5040676;28;20197;-72
2022/01/28 01:07:08;;;;;;;10.80;1.60;;;;;;;;;;5042040;28;20295;-71
2022/01/28 01:09:34;;;;;;;10.00;1.80;;;;;;;;;;5043680;28;20644;-71
2022/01/28 01:11:59;;;;;;;12.47;2.00;;;;;;;;;;5046464;28;20323;-71
2022/01/28 01:14:25;;;;;;;10.57;1.40;;;;;;;;;;5043461;28;20216;-70
2022/01/28 01:19:32;;;;;;;21.10;2.50;;;;;;;;;;5041637;28;20185;-70
2022/01/28 01:21:59;;;;;;;18.90;2.27;;;;;;;;;;5040313;28;20198;-70
2022/01/28 01:24:28;;;;;;;22.57;2.13;;;;;;;;;;5044327;28;20185;-69
2022/01/28 01:26:54;;;;;;;15.17;2.40;;;;;;;;;;5040104;28;20201;-70
2022/01/28 01:29:22;;;;;;;10.33;2.33;;;;;;;;;;5041568;28;20246;-69
2022/01/28 01:31:48;;;;;;;22.07;2.03;;;;;;;;;;5038183;28;20213;-69
2022/01/28 01:34:20;;;;;;;23.47;2.40;;;;;;;;;;5043207;28;20547;-71
2022/01/28 01:36:46;;;;;;;14.17;2.33;;;;;;;;;;5044217;28;20266;-71
2022/01/28 01:39:16;;;;;;;23.50;2.67;;;;;;;;;;5039461;28;20217;-72
2022/01/28 01:41:47;;;;;;;20.73;2.27;;;;;;;;;;5040163;28;20281;-71
2022/01/28 01:47:16;;;;;;;16.53;2.70;;;;;;;;;;5043604;28;20204;-73
2022/01/28 01:52:25;;;;;;;15.60;2.13;;;;;;;;;;5041562;28;20287;-71
2022/01/28 01:54:52;;;;;;;9.93;1.77;;;;;;;;;;5046413;28;20197;-71
2022/01/28 01:57:17;;;;;;;13.83;1.50;;;;;;;;;;5038744;28;20287;-71
2022/01/28 01:59:43;;;;;;;17.30;1.93;;;;;;;;;;5043802;28;20268;-70
2022/01/28 02:02:09;;;;;;;9.63;1.50;;;;;;;;;;5037540;28;20223;-70
2022/01/28 02:04:36;;;;;;;19.17;1.97;;;;;;;;;;5042516;28;20554;-70
2022/01/28 02:07:02;;;;;;;14.93;1.60;;;;;;;;;;5042886;28;20213;-70
2022/01/28 02:09:27;;;;;;;17.07;3.20;;;;;;;;;;5039599;28;20240;-69
2022/01/28 02:11:53;;;;;;;14.53;2.50;;;;;;;;;;5040146;28;20225;-70
2022/01/28 02:14:18;;;;;;;16.83;2.07;;;;;;;;;;5039468;28;20650;-69
2022/01/28 02:16:44;;;;;;;15.67;1.53;;;;;;;;;;5042463;28;20192;-69
2022/01/28 02:19:09;;;;;;;24.73;2.10;;;;;;;;;;5042339;28;20261;-70
2022/01/28 02:21:45;;;;;;;22.93;2.13;;;;;;;;;;5043129;28;20208;-68
2022/01/28 02:24:12;;;;;;;21.13;2.37;;;;;;;;;;5042886;28;20564;-70
2022/01/28 02:26:38;;;;;;;24.90;2.40;;;;;;;;;;5039771;28;20189;-69
2022/01/28 02:29:14;;;;;;;16.10;2.30;;;;;;;;;;5042187;28;20581;-68
2022/01/28 02:31:41;;;;;;;24.57;2.67;;;;;;;;;;5037341;28;20200;-69
2022/01/28 02:34:10;;;;;;;21.80;3.40;;;;;;;;;;5042692;28;20212;-68
2022/01/28 02:36:35;;;;;;;22.33;2.80;;;;;;;;;;5041374;28;20259;-69
2022/01/28 02:39:02;;;;;;;26.30;2.87;;;;;;;;;;5045175;28;20236;-69
2022/01/28 02:41:33;;;;;;;18.90;2.87;;;;;;;;;;5039729;28;20295;-69
2022/01/28 02:44:11;;;;;;;25.23;2.63;;;;;;;;;;5043124;28;20173;-69
2022/01/28 02:46:40;;;;;;;16.40;1.80;;;;;;;;;;5033317;28;20212;-69
2022/01/28 02:49:09;;;;;;;18.27;2.10;;;;;;;;;;5045246;28;20293;-69
2022/01/28 02:51:35;;;;;;;26.77;3.13;;;;;;;;;;5039007;28;20206;-69
2022/01/28 02:54:12;;;;;;;20.73;2.33;;;;;;;;;;5044123;28;20189;-69
2022/01/28 02:56:39;;;;;;;24.23;2.40;;;;;;;;;;5039808;28;20191;-69
2022/01/28 02:59:06;;;;;;;24.17;2.50;;;;;;;;;;5041755;28;20243;-69
2022/01/28 03:01:32;;;;;;;19.67;2.13;;;;;;;;;;5040507;28;20193;-69
2022/01/28 03:04:00;;;;;;;18.73;2.27;;;;;;;;;;5045127;28;20178;-69
2022/01/28 03:06:26;;;;;;;14.17;2.67;;;;;;;;;;5045205;28;20197;-69
2022/01/28 03:08:57;;;;;;;18.30;1.90;;;;;;;;;;5039036;28;20220;-69
2022/01/28 03:14:01;;;;;;;18.30;2.67;;;;;;;;;;5043907;28;20344;-69
2022/01/28 03:16:30;;;;;;;9.77;1.67;;;;;;;;;;5044445;28;20190;-68
2022/01/28 03:19:16;;;;;;;13.67;1.70;;;;;;;;;;5047932;28;20287;-69
2022/01/28 03:21:45;;;;;;;19.60;1.80;;;;;;;;;;5038322;28;20496;-69
2022/01/28 03:24:12;;;;;;;20.73;2.10;;;;;;;;;;5045087;28;20194;-69
2022/01/28 03:26:38;;;;;;;11.27;1.63;;;;;;;;;;5048430;28;20268;-69
2022/01/28 03:29:04;;;;;;;12.23;1.73;;;;;;;;;;5043876;28;20188;-69
2022/01/28 03:31:29;;;;;;;12.23;1.70;;;;;;;;;;5041287;28;20225;-69
2022/01/28 03:33:55;;;;;;;13.10;1.80;;;;;;;;;;5043466;28;20186;-70
2022/01/28 03:36:20;;;;;;;16.50;2.07;;;;;;;;;;5046732;28;20580;-69
2022/01/28 03:38:48;;;;;;;15.10;1.70;;;;;;;;;;5046418;28;20192;-70
2022/01/28 03:41:16;;;;;;;16.43;2.07;;;;;;;;;;5045593;28;20224;-69
2022/01/28 03:43:43;;;;;;;19.90;1.77;;;;;;;;;;5042110;28;20637;-69
2022/01/28 03:46:09;;;;;;;22.07;2.20;;;;;;;;;;5041977;28;20220;-69
2022/01/28 03:48:35;;;;;;;23.13;1.90;;;;;;;;;;5040953;28;20185;-69
2022/01/28 03:51:01;;;;;;;15.37;2.37;;;;;;;;;;5043881;28;20301;-69
2022/01/28 03:53:26;;;;;;;15.87;2.07;;;;;;;;;;5046059;28;20323;-69
2022/01/28 03:55:53;;;;;;;15.10;1.83;;;;;;;;;;5048018;28;20182;-69
2022/01/28 03:58:19;;;;;;;14.30;2.20;;;;;;;;;;5043976;28;20177;-69
2022/01/28 04:00:45;;;;;;;21.23;2.20;;;;;;;;;;5047089;28;20555;-69
2022/01/28 04:13:29;;;;;;;12.27;2.10;;;;;;;;;;5045619;28;20234;-69
2022/01/28 04:16:18;;;;;;;14.40;1.90;;;;;;;;;;5045628;28;20637;-69
2022/01/28 04:18:43;;;;;;;23.40;3.10;;;;;;;;;;5047040;28;20178;-68
2022/01/28 04:21:08;;;;;;;18.00;2.57;;;;;;;;;;5041305;28;20221;-68
2022/01/28 04:23:34;;;;;;;16.20;2.27;;;;;;;;;;5044604;28;20279;-69
2022/01/28 04:25:59;;;;;;;27.00;3.00;;;;;;;;;;5037500;28;20189;-69
2022/01/28 04:28:25;;;;;;;18.70;2.57;;;;;;;;;;5044280;28;20229;-69
2022/01/28 04:30:50;;;;;;;16.63;2.17;;;;;;;;;;5043994;28;20559;-68
2022/01/28 04:33:15;;;;;;;17.53;2.17;;;;;;;;;;5043592;28;20204;-69
2022/01/28 04:35:41;;;;;;;12.63;2.20;;;;;;;;;;5044124;28;20182;-70
2022/01/28 04:38:25;;;;;;;20.63;2.23;;;;;;;;;;5043853;28;20186;-69
2022/01/28 04:41:04;;;;;;;14.63;2.00;;;;;;;;;;5043254;28;20317;-69
2022/01/28 04:43:37;;;;;;;17.40;2.20;;;;;;;;;;5039466;28;20178;-69
2022/01/28 04:46:16;;;;;;;17.77;1.97;;;;;;;;;;5038141;28;20202;-70
2022/01/28 04:51:45;;;;;;;20.40;2.20;;;;;;;;;;5041028;28;20222;-69
2022/01/28 04:57:05;;;;;;;15.77;2.20;;;;;;;;;;5039258;28;20270;-68
2022/01/28 04:59:55;;;;;;;19.63;2.10;;;;;;;;;;5041827;28;20173;-69
2022/01/28 05:05:23;;;;;;;21.67;2.60;;;;;;;;;;5040573;28;20181;-69
2022/01/28 05:26:40;;;;;;;13.23;1.57;;;;;;;;;;5042181;28;20560;-68
2022/01/28 05:29:06;;;;;;;21.30;1.87;;;;;;;;;;5042133;28;20196;-69
2022/01/28 05:31:31;;;;;;;18.43;2.23;;;;;;;;;;5043266;28;20205;-68
2022/01/28 05:33:57;;;;;;;13.97;1.53;;;;;;;;;;5044722;28;20190;-68
2022/01/28 05:36:22;;;;;;;16.27;1.93;;;;;;;;;;5041860;28;20197;-68
2022/01/28 05:38:48;;;;;;;12.60;1.43;;;;;;;;;;5044903;28;20199;-68
2022/01/28 05:41:13;;;;;;;12.87;1.77;;;;;;;;;;5041601;28;20481;-68
2022/01/28 05:43:39;;;;;;;17.57;2.50;;;;;;;;;;5043524;28;20574;-68
2022/01/28 05:46:04;;;;;;;20.37;2.13;;;;;;;;;;5039345;28;20242;-68
2022/01/28 05:48:30;;;;;;;16.30;2.13;;;;;;;;;;5041320;28;20197;-68
2022/01/28 05:50:55;;;;;;;17.40;1.70;;;;;;;;;;5040370;28;20197;-68
2022/01/28 05:53:21;;;;;;;10.60;2.30;;;;;;;;;;5040647;28;20301;-68
2022/01/28 05:55:46;;;;;;;11.73;1.80;;;;;;;;;;5044626;28;20555;-69
2022/01/28 05:58:11;;;;;;;13.70;1.87;;;;;;;;;;5043585;28;20526;-68
2022/01/28 06:00:37;;;;;;;23.80;2.47;;;;;;;;;;5042306;28;20193;-69
2022/01/28 06:03:02;;;;;;;18.23;2.00;;;;;;;;;;5039745;28;20687;-69
2022/01/28 06:05:30;;;;;;;12.70;1.60;;;;;;;;;;5045171;28;20269;-69
2022/01/28 06:07:59;;;;;;;16.83;2.37;;;;;;;;;;5038251;28;20237;-68
2022/01/28 06:10:25;;;;;;;13.90;1.93;;;;;;;;;;5042294;28;20473;-68
2022/01/28 06:12:51;;;;;;;16.33;2.33;;;;;;;;;;5039595;28;20282;-68
2022/01/28 06:15:16;;;;;;;13.37;2.07;;;;;;;;;;5041762;28;20192;-69
2022/01/28 06:17:42;;;;;;;15.87;3.10;;;;;;;;;;5043460;28;20273;-68
2022/01/28 06:20:10;;;;;;;14.60;2.30;;;;;;;;;;5044354;28;20197;-68
2022/01/28 06:22:39;;;;;;;16.20;2.30;;;;;;;;;;5040166;28;20530;-69
2022/01/28 06:25:06;;;;;;;21.87;2.73;;;;;;;;;;5037731;28;20181;-68
2022/01/28 06:27:31;;;;;;;16.77;2.00;;;;;;;;;;5039312;28;20201;-68
2022/01/28 06:29:56;;;;;;;22.13;2.30;;;;;;;;;;5044896;28;20185;-68
2022/01/28 06:32:22;;;;;;;13.53;2.00;;;;;;;;;;5039323;28;20271;-68
2022/01/28 06:34:47;;;;;;;13.63;1.73;;;;;;;;;;5039516;28;20181;-68
2022/01/28 06:37:12;;;;;;;15.70;1.97;;;;;;;;;;5043370;28;20260;-68
2022/01/28 06:39:38;;;;;;;14.23;2.13;;;;;;;;;;5041904;28;20206;-68
2022/01/28 06:42:04;;;;;;;16.90;2.43;;;;;;;;;;5040779;28;20209;-69
2022/01/28 06:44:31;;;;;;;15.43;2.27;;;;;;;;;;5037228;28;20253;-68
2022/01/28 06:46:56;;;;;;;19.60;2.43;;;;;;;;;;5048082;28;20195;-68
2022/01/28 06:49:22;;;;;;;20.10;2.37;;;;;;;;;;5046332;28;20374;-67
2022/01/28 06:51:47;;;;;;;16.50;2.43;;;;;;;;;;5046753;28;20209;-68
2022/01/28 06:54:12;;;;;;;19.93;2.47;;;;;;;;;;5048841;28;20184;-67
2022/01/28 06:56:38;;;;;;;30.00;3.20;;;;;;;;;;5046427;28;20192;-67
2022/01/28 06:59:03;;;;;;;18.13;2.90;;;;;;;;;;5046804;28;20188;-68
2022/01/28 07:01:29;;;;;;;21.57;2.83;;;;;;;;;;5052908;28;20197;-68
2022/01/28 07:03:54;;;;;;;20.87;3.23;;;;;;;;;;5042331;28;20265;-68
2022/01/28 07:06:20;;;;;;;14.83;2.33;;;;;;;;;;5042815;28;20288;-68
2022/01/28 07:08:45;;;;;;;15.87;2.80;;;;;;;;;;5045126;28;20277;-68
2022/01/28 07:11:11;;;;;;;22.33;2.53;;;;;;;;;;5044752;28;20229;-67
2022/01/28 07:13:36;;;;;;;18.97;2.77;;;;;;;;;;5046585;28;20251;-67
2022/01/28 07:16:02;;;;;;;27.20;3.17;;;;;;;;;;5039832;28;20270;-67
2022/01/28 07:18:28;;;;;;;15.50;2.70;;;;;;;;;;5044190;28;20185;-67
2022/01/28 07:20:54;;;;;;;22.87;3.10;;;;;;;;;;5046745;28;20224;-68
2022/01/28 07:23:19;;;;;;;30.83;3.03;;;;;;;;;;5039950;28;20247;-67
2022/01/28 07:25:45;;;;;;;21.10;2.57;;;;;;;;;;5043245;28;20211;-67
2022/01/28 07:28:10;;;;;;;21.93;2.83;;;;;;;;;;5047034;28;20216;-66
2022/01/28 07:30:35;;;;;;;18.87;2.90;;;;;;;;;;5046023;28;20233;-67
2022/01/28 07:33:05;;;;;;;19.77;3.17;;;;;;;;;;5040155;28;20516;-67
2022/01/28 07:35:30;;;;;;;33.30;3.43;;;;;;;;;;5041927;28;20512;-67
2022/01/28 07:37:56;;;;;;;18.97;4.00;;;;;;;;;;5043666;28;20189;-67
2022/01/28 07:40:21;;;;;;;18.53;2.23;;;;;;;;;;5044467;28;20256;-68
2022/01/28 07:42:47;;;;;;;17.63;2.50;;;;;;;;;;5044179;28;21053;-68
2022/01/28 07:45:16;;;;;;;24.50;3.03;;;;;;;;;;5044503;28;20559;-67
2022/01/28 07:47:44;;;;;;;12.50;2.07;;;;;;;;;;5047803;28;20193;-68
2022/01/28 07:50:12;;;;;;;24.17;2.83;;;;;;;;;;5045063;28;20212;-67
2022/01/28 07:52:38;;;;;;;17.67;2.20;;;;;;;;;;5042372;28;20224;-67
2022/01/28 07:55:05;;;;;;;21.33;2.37;;;;;;;;;;5045967;28;20181;-67
2022/01/28 07:57:30;;;;;;;16.93;2.50;;;;;;;;;;5047184;28;20189;-67
2022/01/28 07:59:56;;;;;;;17.60;3.13;;;;;;;;;;5044729;28;20649;-67
2022/01/28 08:02:21;;;;;;;18.43;2.70;;;;;;;;;;5045062;28;20190;-67
2022/01/28 08:04:47;;;;;;;22.73;3.00;;;;;;;;;;5047282;28;20201;-67
2022/01/28 08:07:12;;;;;;;22.03;3.57;;;;;;;;;;5047673;28;20239;-67
2022/01/28 08:09:38;;;;;;;20.67;3.23;;;;;;;;;;5042894;28;20229;-66
2022/01/28 08:12:03;;;;;;;23.10;3.30;;;;;;;;;;5042333;28;20233;-67
2022/01/28 08:14:30;;;;;;;15.40;3.07;;;;;;;;;;5040179;28;20233;-67
2022/01/28 08:16:56;;;;;;;30.33;3.40;;;;;;;;;;5047959;28;20196;-67
2022/01/28 08:19:22;;;;;;;16.70;2.80;;;;;;;;;;5038525;28;20197;-67
2022/01/28 08:21:47;;;;;;;19.47;3.00;;;;;;;;;;5043662;28;20186;-68
2022/01/28 08:24:12;;;;;;;21.83;2.47;;;;;;;;;;5044953;28;20288;-67
2022/01/28 08:26:38;;;;;;;23.70;3.33;;;;;;;;;;5041638;28;20545;-67
2022/01/28 08:29:05;;;;;;;20.17;2.80;;;;;;;;;;5042627;28;20185;-68
2022/01/28 08:31:31;;;;;;;17.57;2.73;;;;;;;;;;5043888;28;20271;-68
2022/01/28 08:33:56;;;;;;;22.53;3.00;;;;;;;;;;5043583;28;20227;-67
2022/01/28 08:36:22;;;;;;;18.13;2.73;;;;;;;;;;5043618;28;20201;-67
2022/01/28 08:38:49;;;;;;;16.63;2.60;;;;;;;;;;5044337;28;20207;-67
2022/01/28 08:41:15;;;;;;;18.73;2.80;;;;;;;;;;5043052;28;20212;-66
2022/01/28 08:43:41;;;;;;;18.53;2.67;;;;;;;;;;5045139;28;20535;-67
2022/01/28 08:46:06;;;;;;;17.77;2.83;;;;;;;;;;5045482;28;20280;-67
2022/01/28 08:48:32;;;;;;;17.27;2.70;;;;;;;;;;5047864;28;20194;-67
2022/01/28 08:50:57;;;;;;;14.70;2.63;;;;;;;;;;5046012;28;20696;-67
2022/01/28 08:53:23;;;;;;;17.93;2.70;;;;;;;;;;5048335;28;20197;-67
2022/01/28 08:55:48;;;;;;;16.97;3.17;;;;;;;;;;5043605;28;20209;-68
2022/01/28 08:58:15;;;;;;;24.17;2.87;;;;;;;;;;5048254;28;20221;-67
2022/01/28 09:00:43;;;;;;;17.13;2.50;;;;;;;;;;5044123;28;20612;-67
2022/01/28 09:03:08;;;;;;;23.03;2.87;;;;;;;;;;5042642;28;20196;-66
2022/01/28 09:05:34;;;;;;;20.73;2.60;;;;;;;;;;5047218;28;20189;-67
2022/01/28 09:08:05;;;;;;;22.67;2.63;;;;;;;;;;5042108;28;20392;-67
2022/01/28 09:10:31;;;;;;;26.27;3.73;;;;;;;;;;5044311;28;20193;-66
2022/01/28 09:15:39;;;;;;;20.40;3.30;;;;;;;;;;5043163;28;20209;-68
2022/01/28 09:18:05;;;;;;;15.33;2.47;;;;;;;;;;5042478;28;20235;-67
2022/01/28 09:20:32;;;;;;;20.03;3.17;;;;;;;;;;5042787;28;20211;-67
2022/01/28 09:22:59;;;;;;;31.17;3.97;;;;;;;;;;5046193;28;20575;-67
2022/01/28 09:25:25;;;;;;;13.03;2.60;;;;;;;;;;5045115;28;20271;-67
2022/01/28 09:27:51;;;;;;;25.73;2.70;;;;;;;;;;5043194;28;20678;-67
2022/01/28 09:30:16;;;;;;;19.67;2.77;;;;;;;;;;5040615;28;20899;-67
2022/01/28 09:32:42;;;;;;;23.27;3.00;;;;;;;;;;5048206;28;20652;-66
2022/01/28 09:35:08;;;;;;;18.57;3.33;;;;;;;;;;5045284;28;20188;-67
2022/01/28 09:37:34;;;;;;;19.57;3.07;;;;;;;;;;5044225;28;20189;-67
2022/01/28 09:40:00;;;;;;;24.33;3.20;;;;;;;;;;5042132;28;20197;-68
2022/01/28 09:42:29;;;;;;;18.73;2.70;;;;;;;;;;5047890;28;20181;-66
2022/01/28 09:44:55;;;;;;;13.57;2.33;;;;;;;;;;5040439;28;20248;-66
2022/01/28 09:47:21;;;;;;;19.50;2.80;;;;;;;;;;5047922;28;20224;-66
2022/01/28 09:49:47;;;;;;;18.87;2.77;;;;;;;;;;5041192;28;20196;-67
2022/01/28 09:52:12;;;;;;;27.93;2.83;;;;;;;;;;5046272;28;20205;-66
2022/01/28 09:54:39;;;;;;;19.87;2.83;;;;;;;;;;5042504;28;20194;-67
2022/01/28 09:57:06;;;;;;;20.90;2.67;;;;;;;;;;5043998;28;20189;-67
2022/01/28 09:59:32;;;;;;;26.00;3.27;;;;;;;;;;5043908;28;20534;-67
2022/01/28 10:01:58;;;;;;;15.63;2.20;;;;;;;;;;5044846;28;20297;-66
2022/01/28 10:04:23;;;;;;;23.00;3.10;;;;;;;;;;5043029;28;20698;-67
2022/01/28 10:06:49;;;;;;;21.70;2.50;;;;;;;;;;5045126;28;20186;-67
2022/01/28 10:09:18;;;;;;;21.77;2.93;;;;;;;;;;5042887;28;20182;-67
2022/01/28 10:11:46;;;;;;;24.60;3.90;;;;;;;;;;5041564;28;20222;-67
2022/01/28 10:14:16;;;;;;;14.33;2.83;;;;;;;;;;5045667;28;20189;-67
2022/01/28 10:16:41;;;;;;;22.77;3.50;;;;;;;;;;5045345;28;20193;-67
2022/01/28 10:19:11;;;;;;;18.77;3.23;;;;;;;;;;5041741;28;20649;-67
2022/01/28 10:21:39;;;;;;;19.20;2.90;;;;;;;;;;5039777;28;20230;-67
2022/01/28 10:24:15;;;;;;;20.50;3.07;;;;;;;;;;5045736;28;20181;-67
2022/01/28 10:26:50;;;;;;;23.43;2.50;;;;;;;;;;5042318;28;20566;-67
2022/01/28 10:29:30;;;;;;;11.37;2.50;;;;;;;;;;5044512;28;20200;-67
2022/01/28 10:32:27;;;;;;;19.40;3.20;;;;;;;;;;5039530;28;20561;-67
2022/01/28 10:34:52;;;;;;;25.23;2.87;;;;;;;;;;5037811;28;20288;-67
2022/01/28 10:37:54;;;;;;;11.43;2.60;;;;;;;;;;5041503;28;20197;-67
2022/01/28 10:40:19;;;;;;;25.17;2.87;;;;;;;;;;5041530;28;20224;-66
2022/01/28 10:42:51;;;;;;;22.47;3.30;;;;;;;;;;5045922;28;20196;-66
2022/01/28 10:45:19;;;;;;;18.90;2.40;;;;;;;;;;5042787;28;20190;-67
2022/01/28 10:47:53;;;;;;;16.90;3.23;;;;;;;;;;5045968;28;20559;-67
2022/01/28 10:50:26;;;;;;;21.83;3.53;;;;;;;;;;5042439;28;20190;-67
2022/01/28 10:53:11;;;;;;;22.67;3.60;;;;;;;;;;5043566;28;20232;-67
2022/01/28 10:55:45;;;;;;;19.77;3.20;;;;;;;;;;5043290;28;20212;-66
2022/01/28 10:58:13;;;;;;;18.70;2.47;;;;;;;;;;5045281;28;20579;-66
2022/01/28 11:00:43;;;;;;;14.80;2.67;;;;;;;;;;5043933;28;20277;-67
2022/01/28 11:03:12;;;;;;;21.63;3.10;;;;;;;;;;5043793;28;20217;-66
2022/01/28 11:05:39;;;;;;;26.13;3.20;;;;;;;;;;5041549;28;20213;-66
2022/01/28 11:08:07;;;;;;;17.63;2.47;;;;;;;;;;5044492;28;20186;-67
2022/01/28 11:10:34;;;;;;;18.30;3.10;;;;;;;;;;5042063;28;20309;-67
2022/01/28 11:13:00;;;;;;;21.07;2.93;;;;;;;;;;5038753;28;20225;-66
2022/01/28 11:15:27;;;;;;;21.93;3.30;;;;;;;;;;5045902;28;20610;-67
2022/01/28 11:17:53;;;;;;;23.40;2.60;;;;;;;;;;5044734;28;20192;-65
2022/01/28 11:20:22;;;;;;;16.50;2.67;;;;;;;;;;5043751;28;20178;-66
2022/01/28 11:23:21;;;;;;;21.58;3.42;;;;;;;;;;5042566;28;20276;-66
2022/01/28 11:26:07;;;;;;;22.07;2.53;;;;;;;;;;5042712;28;20190;-66
2022/01/28 11:28:43;;;;;;;23.23;3.67;;;;;;;;;;5020042;28;20205;-66
2022/01/28 11:31:10;;;;;;;29.67;3.20;;;;;;;;;;5035981;28;20209;-66
2022/01/28 11:33:47;;;;;;;21.27;2.80;;;;;;;;;;5051137;28;20645;-66
2022/01/28 11:36:14;;;;;;;16.80;2.80;;;;;;;;;;5042145;28;20566;-66
2022/01/28 11:38:42;;;;;;;17.00;2.55;;;;;;;;;;5044513;28;20320;-66
2022/01/28 11:41:12;;;;;;;19.37;3.13;;;;;;;;;;5043850;28;20540;-66
2022/01/28 11:44:03;;;;;;;24.40;2.65;;;;;;;;;;5047114;28;20272;-67
2022/01/28 11:46:36;;;;;;;20.87;3.07;;;;;;;;;;5042059;28;20308;-66
2022/01/28 11:49:02;;;;;;;19.63;2.50;;;;;;;;;;5044432;28;20543;-65
2022/01/28 11:51:37;;;;;;;17.73;2.33;;;;;;;;;;5042732;28;20208;-65
2022/01/28 11:54:03;;;;;;;16.92;2.47;;;;;;;;;;5044706;28;20191;-66
2022/01/28 11:56:29;;;;;;;17.67;3.55;;;;;;;;;;5048524;28;20667;-66
2022/01/28 11:59:07;;;;;;;21.70;2.63;;;;;;;;;;5044391;28;20225;-66
2022/01/28 12:01:36;;;;;;;24.87;3.03;;;;;;;;;;5047698;28;20162;-66
2022/01/28 12:04:26;;;;;;;22.40;2.67;;;;;;;;;;5044243;28;20193;-66
2022/01/28 12:07:00;;;;;;;16.63;2.80;;;;;;;;;;5041707;28;20224;-66
2022/01/28 12:09:26;;;;;;;17.13;2.23;;;;;;;;;;5043998;28;20641;-66
2022/01/28 12:11:52;;;;;;;11.57;1.93;;;;;;;;;;5046794;28;20225;-66
2022/01/28 12:14:18;;;;;;;23.20;3.07;;;;;;;;;;5045162;28;20556;-66
2022/01/28 12:16:47;;;;;;;16.07;2.27;;;;;;;;;;5037538;28;20594;-66
2022/01/28 12:19:21;;;;;;;21.97;2.90;;;;;;;;;;5047919;28;20202;-66
2022/01/28 12:22:09;;;;;;;17.43;2.60;;;;;;;;;;5040388;28;20261;-66
2022/01/28 12:24:37;;;;;;;15.70;2.23;;;;;;;;;;5043849;28;20205;-66
2022/01/28 12:27:05;;;;;;;18.77;2.80;;;;;;;;;;5043476;28;20212;-66
2022/01/28 12:29:33;;;;;;;21.47;3.20;;;;;;;;;;5047626;28;20186;-66
2022/01/28 12:32:00;;;;;;;16.63;2.73;;;;;;;;;;5044575;28;20636;-66
2022/01/28 12:34:27;;;;;;;20.53;2.37;;;;;;;;;;5048938;28;20193;-66
2022/01/28 12:36:53;;;;;;;15.43;2.30;;;;;;;;;;5043393;28;20194;-66
2022/01/28 12:39:32;;;;;;;14.87;2.27;;;;;;;;;;5043601;28;20568;-66
2022/01/28 12:44:58;;;;;;;14.03;2.40;;;;;;;;;;5046205;28;20225;-66
2022/01/28 12:47:25;;;;;;;23.60;2.73;;;;;;;;;;5043914;28;20633;-66
2022/01/28 12:50:03;;;;;;;16.57;2.10;;;;;;;;;;5044229;28;20193;-67
2022/01/28 12:52:34;;;;;;;14.20;2.20;;;;;;;;;;5043047;28;20205;-66
2022/01/28 12:54:59;;;;;;;18.13;2.47;;;;;;;;;;5043103;28;20552;-66
2022/01/28 12:57:25;;;;;;;14.03;2.50;;;;;;;;;;5043910;28;20193;-66
2022/01/28 12:59:50;;;;;;;18.57;2.43;;;;;;;;;;5041257;28;20689;-66
2022/01/28 13:02:17;;;;;;;19.33;2.70;;;;;;;;;;5042898;28;20259;-67
2022/01/28 13:04:58;;;;;;;22.50;2.40;;;;;;;;;;5046303;28;20190;-67
2022/01/28 13:10:17;;;;;;;21.33;2.50;;;;;;;;;;5041023;28;20197;-66
2022/01/28 13:12:44;;;;;;;15.13;2.50;;;;;;;;;;5042479;28;20272;-66
2022/01/28 13:15:12;;;;;;;18.00;2.90;;;;;;;;;;5045201;28;20355;-66
2022/01/28 13:17:39;;;;;;;16.87;2.73;;;;;;;;;;5040708;28;20189;-66
2022/01/28 13:20:10;;;;;;;23.40;2.70;;;;;;;;;;5045341;28;20206;-66
2022/01/28 13:22:37;;;;;;;13.60;2.10;;;;;;;;;;5043508;28;20201;-66
2022/01/28 13:25:15;;;;;;;16.47;2.57;;;;;;;;;;5043560;28;20593;-66
2022/01/28 13:27:45;;;;;;;19.77;2.63;;;;;;;;;;5042285;28;20200;-66
2022/01/28 13:30:15;;;;;;;16.83;2.30;;;;;;;;;;5041699;28;20212;-66
2022/01/28 13:32:46;;;;;;;14.73;2.40;;;;;;;;;;5043731;28;20201;-66
2022/01/28 13:35:16;;;;;;;13.20;2.47;;;;;;;;;;5043397;28;20278;-66
2022/01/28 13:37:47;;;;;;;18.83;2.27;;;;;;;;;;5041679;28;20196;-66
2022/01/28 13:40:18;;;;;;;14.70;2.40;;;;;;;;;;5041674;28;20189;-66
2022/01/28 13:42:58;;;;;;;16.60;2.73;;;;;;;;;;5044254;28;20257;-66
2022/01/28 13:45:40;;;;;;;19.17;2.63;;;;;;;;;;5039445;28;20194;-66
2022/01/28 13:48:08;;;;;;;14.80;2.23;;;;;;;;;;5040149;28;20204;-66
2022/01/28 13:50:39;;;;;;;20.30;2.50;;;;;;;;;;5042205;28;20531;-66
2022/01/28 13:55:59;;;;;;;23.23;2.40;;;;;;;;;;5041909;28;20276;-65
2022/01/28 13:58:26;;;;;;;20.47;2.20;;;;;;;;;;5044660;28;20615;-65
2022/01/28 14:00:52;;;;;;;17.23;2.40;;;;;;;;;;5043519;28;20181;-65
2022/01/28 14:03:21;;;;;;;23.07;2.50;;;;;;;;;;5042405;28;20889;-65
2022/01/28 14:05:58;;;;;;;15.47;2.50;;;;;;;;;;5041342;28;20236;-66
2022/01/28 14:08:42;;;;;;;13.30;2.07;;;;;;;;;;5043304;28;20263;-66
2022/01/28 14:11:28;;;;;;;13.80;2.03;;;;;;;;;;5042380;28;20235;-65
2022/01/28 14:14:30;;;;;;;13.97;1.90;;;;;;;;;;5041558;28;20200;-67
2022/01/28 14:17:01;;;;;;;14.00;2.50;;;;;;;;;;5040884;28;20197;-66
2022/01/28 14:19:28;;;;;;;13.43;2.20;;;;;;;;;;5041474;28;20839;-66
2022/01/28 14:21:54;;;;;;;17.97;2.13;;;;;;;;;;5038647;28;20190;-67
2022/01/28 14:24:26;;;;;;;11.97;1.87;;;;;;;;;;5044721;28;20553;-66
2022/01/28 14:27:11;;;;;;;24.10;2.77;;;;;;;;;;5042254;28;20197;-66
2022/01/28 14:29:50;;;;;;;16.67;2.00;;;;;;;;;;5039423;28;20189;-66
2022/01/28 14:32:21;;;;;;;18.07;1.93;;;;;;;;;;5045350;28;20622;-66
2022/01/28 14:34:50;;;;;;;16.13;2.67;;;;;;;;;;5040270;28;20272;-67
2022/01/28 14:37:16;;;;;;;13.73;1.93;;;;;;;;;;5043440;28;20177;-66
2022/01/28 14:39:42;;;;;;;14.60;2.00;;;;;;;;;;5041289;28;20271;-65
2022/01/28 14:42:09;;;;;;;13.90;1.80;;;;;;;;;;5040088;28;20177;-65
2022/01/28 14:44:38;;;;;;;9.57;1.47;;;;;;;;;;5041926;28;20190;-66
2022/01/28 14:47:04;;;;;;;14.93;1.70;;;;;;;;;;5042705;28;20659;-66
2022/01/28 14:49:30;;;;;;;16.57;1.70;;;;;;;;;;5042026;28;20224;-66
2022/01/28 14:52:00;;;;;;;9.70;1.10;;;;;;;;;;5043373;28;20677;-67
2022/01/28 14:54:28;;;;;;;9.57;1.93;;;;;;;;;;5045122;28;20220;-66
2022/01/28 14:56:55;;;;;;;14.23;2.03;;;;;;;;;;5037811;28;20677;-66
2022/01/28 14:59:20;;;;;;;13.63;2.10;;;;;;;;;;5042108;28;20216;-66
2022/01/28 15:01:46;;;;;;;20.27;2.50;;;;;;;;;;5039973;28;20198;-67
2022/01/28 15:04:11;;;;;;;13.03;2.23;;;;;;;;;;5045300;28;20193;-67
2022/01/28 15:06:38;;;;;;;15.37;2.20;;;;;;;;;;5042487;28;20382;-67
2022/01/28 15:09:05;;;;;;;11.50;1.70;;;;;;;;;;5043330;28;20645;-67
2022/01/28 15:11:44;;;;;;;13.83;2.20;;;;;;;;;;5046063;28;20229;-67
2022/01/28 15:14:13;;;;;;;10.67;1.80;;;;;;;;;;5048365;28;20614;-67
2022/01/28 15:16:39;;;;;;;16.00;2.57;;;;;;;;;;5045414;28;20259;-66
2022/01/28 15:19:05;;;;;;;19.63;2.40;;;;;;;;;;5048306;28;20637;-66
2022/01/28 15:21:31;;;;;;;13.47;2.00;;;;;;;;;;5045337;28;20239;-66
2022/01/28 15:23:56;;;;;;;16.83;2.80;;;;;;;;;;5046760;28;20185;-66
2022/01/28 15:26:21;;;;;;;14.97;2.20;;;;;;;;;;5045723;28;20193;-66
2022/01/28 15:29:01;;;;;;;13.10;2.07;;;;;;;;;;5047613;28;20205;-66
2022/01/28 15:36:57;;;;;;;11.10;1.53;;;;;;;;;;5047897;28;20204;-67
2022/01/28 15:39:23;;;;;;;8.87;2.03;;;;;;;;;;5044030;28;20193;-66
2022/01/28 15:41:48;;;;;;;17.03;2.13;;;;;;;;;;5045930;28;20186;-67
2022/01/28 15:44:13;;;;;;;10.90;3.10;;;;;;;;;;5046696;28;20274;-67
2022/01/28 15:46:39;;;;;;;16.23;2.20;;;;;;;;;;5044614;28;20212;-67
2022/01/28 15:49:08;;;;;;;12.90;2.57;;;;;;;;;;5040804;28;20605;-67
2022/01/28 15:51:34;;;;;;;13.87;2.27;;;;;;;;;;5043615;28;20361;-66
2022/01/28 15:54:00;;;;;;;12.27;2.40;;;;;;;;;;5044554;28;20262;-68
2022/01/28 15:56:26;;;;;;;18.50;2.33;;;;;;;;;;5041020;28;20181;-66
2022/01/28 15:58:51;;;;;;;12.53;2.03;;;;;;;;;;5038973;28;21033;-66
2022/01/28 16:01:19;;;;;;;15.13;2.43;;;;;;;;;;5042232;28;20268;-66
2022/01/28 16:03:44;;;;;;;14.57;2.23;;;;;;;;;;5044135;28;20216;-66